Time;durP1;ratioP1;P1;durP2;ratioP2;P2;SDS_P1;SDS_P2;PMS_P1;PMS_P2;Temp;Humidity;BMP_temperature;BMP_pressure;BME280_temperature;BME280_humidity;BME280_pressure;Samples;Min_cycle;Max_cycle;Signal;HPM_P1;HPM_P2
2022/08/21 00:01:23;;;;;;;16.58;10.05;;;;;;;12.26;100.00;101615.41;5115989;28;20038;-42
2022/08/21 00:03:49;;;;;;;;;;;;;;;12.36;100.00;101614.88;5116526;28;20034;-43
2022/08/21 00:06:14;;;;;;;12.70;9.43;;;;;;;12.25;100.00;101611.03;5114910;28;19915;-42
2022/08/21 00:08:40;;;;;;;12.65;9.57;;;;;;;12.19;100.00;101606.56;5115711;28;20034;-42
2022/08/21 00:11:06;;;;;;;14.57;9.82;;;;;;;12.22;100.00;101610.94;5116092;28;20390;-44
2022/08/21 00:13:32;;;;;;;12.60;9.77;;;;;;;12.15;100.00;101605.56;5114968;28;20096;-44
2022/08/21 00:15:58;;;;;;;12.45;9.43;;;;;;;12.15;100.00;101613.31;5115842;28;20438;-42
2022/08/21 00:18:23;;;;;;;13.30;9.55;;;;;;;12.12;100.00;101612.31;5115592;27;20030;-41
2022/08/21 00:20:49;;;;;;;10.95;9.52;;;;;;;12.10;100.00;101601.94;5115321;28;20095;-42
2022/08/21 00:23:14;;;;;;;13.77;10.30;;;;;;;12.09;100.00;101596.72;5115488;28;20450;-42
2022/08/21 00:25:42;;;;;;;13.52;10.32;;;;;;;12.11;100.00;101607.97;5115615;28;20478;-43
2022/08/21 00:28:08;;;;;;;14.73;10.68;;;;;;;12.14;100.00;101608.09;5115185;28;20031;-42
2022/08/21 00:30:34;;;;;;;14.73;10.68;;;;;;;12.06;100.00;101605.25;5115566;28;20028;-43
2022/08/21 00:33:00;;;;;;;13.20;10.68;;;;;;;12.08;100.00;101597.53;5115281;27;20035;-42
2022/08/21 00:35:32;;;;;;;16.50;12.48;;;;;;;12.05;100.00;101600.88;5114632;28;20051;-42
2022/08/21 00:37:57;;;;;;;16.30;11.45;;;;;;;12.11;100.00;101593.38;5115390;27;20381;-41
2022/08/21 00:40:27;;;;;;;16.10;12.82;;;;;;;12.12;100.00;101592.53;5114982;27;20016;-42
2022/08/21 00:42:52;;;;;;;13.57;11.25;;;;;;;12.06;100.00;101584.56;5114791;28;20035;-41
2022/08/21 00:45:18;;;;;;;14.50;11.43;;;;;;;12.02;100.00;101593.03;5115059;28;20035;-42
2022/08/21 00:47:43;;;;;;;13.25;10.80;;;;;;;12.00;100.00;101589.50;5115306;28;20031;-42
2022/08/21 00:50:10;;;;;;;12.80;11.38;;;;;;;11.98;100.00;101580.81;5114708;28;20424;-42
2022/08/21 00:52:37;;;;;;;15.27;12.40;;;;;;;12.00;100.00;101585.22;5115048;28;20496;-42
2022/08/21 00:55:04;;;;;;;15.27;11.60;;;;;;;11.95;100.00;101591.03;5114887;28;20020;-42
2022/08/21 00:57:35;;;;;;;14.73;10.60;;;;;;;11.92;100.00;101590.94;5114807;28;20031;-42
2022/08/21 01:00:04;;;;;;;14.30;11.52;;;;;;;11.92;100.00;101599.53;5114983;28;20073;-44
2022/08/21 01:02:30;;;;;;;13.70;11.73;;;;;;;11.93;100.00;101598.72;5112433;28;20386;-43
2022/08/21 01:04:55;;;;;;;14.65;10.85;;;;;;;11.92;100.00;101596.97;5115092;28;20481;-43
2022/08/21 01:07:20;;;;;;;16.08;11.70;;;;;;;11.89;100.00;101595.97;5114756;27;20030;-43
2022/08/21 01:09:47;;;;;;;16.35;11.07;;;;;;;11.88;100.00;101596.78;5114074;28;20459;-44
2022/08/21 01:12:13;;;;;;;15.35;11.35;;;;;;;11.84;100.00;101596.69;5114599;28;20044;-47
2022/08/21 01:14:41;;;;;;;14.10;11.05;;;;;;;11.83;100.00;101596.63;5114597;28;20458;-44
2022/08/21 01:17:08;;;;;;;13.23;11.18;;;;;;;11.84;100.00;101594.09;5114080;28;20038;-42
2022/08/21 01:19:34;;;;;;;12.70;11.07;;;;;;;11.83;100.00;101600.06;5113668;28;20472;-42
2022/08/21 01:21:59;;;;;;;16.25;11.30;;;;;;;11.81;100.00;101599.16;5114323;28;20034;-47
2022/08/21 01:24:25;;;;;;;14.00;10.27;;;;;;;11.84;100.00;101591.50;5113699;27;20026;-43
2022/08/21 01:26:51;;;;;;;14.80;11.18;;;;;;;11.79;100.00;101584.44;5114530;28;20106;-43
2022/08/21 01:29:16;;;;;;;14.43;10.07;;;;;;;11.79;100.00;101584.44;5113858;28;20028;-43
2022/08/21 01:31:42;;;;;;;13.47;10.73;;;;;;;11.79;100.00;101580.13;5114026;28;20022;-43
2022/08/21 01:34:10;;;;;;;16.00;11.95;;;;;;;11.79;100.00;101593.06;5114566;28;20382;-42
2022/08/21 01:36:36;;;;;;;14.27;11.05;;;;;;;11.75;100.00;101588.59;5113865;28;20067;-42
2022/08/21 01:39:03;;;;;;;16.92;11.18;;;;;;;11.77;100.00;101586.94;5113933;28;20027;-44
2022/08/21 01:41:28;;;;;;;14.02;11.10;;;;;;;11.72;100.00;101585.88;5113941;28;20031;-43
2022/08/21 01:43:54;;;;;;;12.80;10.13;;;;;;;11.66;100.00;101583.09;5113834;28;20479;-42
2022/08/21 01:46:19;;;;;;;13.05;9.95;;;;;;;11.61;100.00;101587.22;5113488;28;20077;-43
2022/08/21 01:48:44;;;;;;;16.35;10.75;;;;;;;11.55;100.00;101584.41;5114036;28;20023;-42
2022/08/21 01:51:10;;;;;;;13.45;10.77;;;;;;;11.51;100.00;101586.84;5113743;28;20474;-43
2022/08/21 01:53:36;;;;;;;13.52;10.80;;;;;;;11.50;100.00;101587.69;5113407;28;20035;-42
2022/08/21 01:56:06;;;;;;;11.43;10.23;;;;;;;11.45;100.00;101584.06;5114133;28;20031;-44
2022/08/21 01:58:31;;;;;;;13.38;10.45;;;;;;;11.40;100.00;101585.59;5112732;28;20594;-43
2022/08/21 02:00:57;;;;;;;15.25;10.30;;;;;;;11.34;100.00;101587.94;5113990;28;20363;-45
2022/08/21 02:03:22;;;;;;;13.48;11.10;;;;;;;11.39;100.00;101581.25;5113779;28;20023;-45
2022/08/21 02:05:47;;;;;;;13.98;10.60;;;;;;;11.37;100.00;101580.28;5113064;28;20025;-41
2022/08/21 02:08:12;;;;;;;13.32;10.20;;;;;;;11.30;100.00;101576.59;5113621;28;20420;-42
2022/08/21 02:10:38;;;;;;;15.70;10.68;;;;;;;11.31;100.00;101569.72;5113744;28;20032;-42
2022/08/21 02:13:04;;;;;;;11.18;9.98;;;;;;;11.25;100.00;101564.34;5112815;28;20028;-43
2022/08/21 02:15:29;;;;;;;14.73;10.60;;;;;;;11.26;100.00;101560.94;5113551;28;20062;-45
2022/08/21 02:17:59;;;;;;;13.35;10.20;;;;;;;11.22;100.00;101569.38;5113473;28;20020;-42
2022/08/21 02:20:45;;;;;;;13.30;10.85;;;;;;;11.19;100.00;101572.72;5112711;28;20379;-42
2022/08/21 02:23:11;;;;;;;12.63;10.43;;;;;;;11.08;100.00;101564.56;5113226;28;20447;-42
2022/08/21 02:25:37;;;;;;;12.90;9.63;;;;;;;11.10;100.00;101562.91;5113346;28;20514;-43
2022/08/21 02:28:09;;;;;;;14.75;10.25;;;;;;;10.96;100.00;101561.50;5113101;28;20023;-41
2022/08/21 02:30:39;;;;;;;12.20;9.30;;;;;;;10.86;100.00;101563.72;5113143;28;20371;-42
2022/08/21 02:33:05;;;;;;;11.55;9.48;;;;;;;10.94;100.00;101560.59;5113102;28;20470;-44
2022/08/21 02:35:31;;;;;;;16.20;9.98;;;;;;;10.96;100.00;101556.34;5112378;28;20075;-42
2022/08/21 02:38:02;;;;;;;13.40;10.23;;;;;;;10.93;100.00;101557.09;5113369;28;20089;-41
2022/08/21 02:40:30;;;;;;;16.10;11.60;;;;;;;10.96;100.00;101558.91;5113136;28;20106;-42
2022/08/21 02:42:57;;;;;;;17.85;13.57;;;;;;;11.01;100.00;101554.81;5112907;28;20107;-45
2022/08/21 02:45:23;;;;;;;15.50;11.18;;;;;;;10.89;100.00;101559.53;5113005;28;20470;-44
2022/08/21 02:47:51;;;;;;;15.07;11.73;;;;;;;10.93;100.00;101551.06;5112592;28;20042;-42
2022/08/21 02:50:26;;;;;;;16.77;12.25;;;;;;;10.99;100.00;101556.47;5112936;28;20024;-43
2022/08/21 02:52:52;;;;;;;13.73;11.57;;;;;;;10.92;100.00;101555.34;5113276;28;20055;-44
2022/08/21 02:55:20;;;;;;;15.60;12.32;;;;;;;10.94;100.00;101558.00;5112329;28;20112;-44
2022/08/21 02:57:45;;;;;;;;;;;;;;;11.01;100.00;101557.41;5113803;28;20024;-46
2022/08/21 03:00:12;;;;;;;11.02;9.82;;;;;;;10.92;100.00;101546.72;5112776;28;19912;-42
2022/08/21 03:02:38;;;;;;;13.35;10.57;;;;;;;10.86;100.00;101550.81;5112663;28;20504;-43
2022/08/21 03:05:05;;;;;;;15.50;10.43;;;;;;;10.82;100.00;101559.28;5113058;28;20028;-42
2022/08/21 03:07:30;;;;;;;12.73;11.00;;;;;;;10.80;100.00;101555.72;5112565;28;20032;-45
2022/08/21 03:09:56;;;;;;;12.38;10.10;;;;;;;10.66;100.00;101547.44;5112708;28;20023;-44
2022/08/21 03:12:22;;;;;;;10.55;9.45;;;;;;;10.58;100.00;101548.84;5112747;28;20027;-42
2022/08/21 03:14:47;;;;;;;16.38;9.68;;;;;;;10.64;100.00;101550.78;5112791;28;20424;-45
2022/08/21 03:17:12;;;;;;;14.57;11.25;;;;;;;10.58;100.00;101559.16;5112151;28;20027;-43
2022/08/21 03:19:37;;;;;;;16.67;12.10;;;;;;;10.59;100.00;101554.84;5112990;28;20027;-44
2022/08/21 03:22:03;;;;;;;16.85;12.15;;;;;;;10.47;100.00;101544.94;5112940;28;20519;-43
2022/08/21 03:24:29;;;;;;;13.02;11.43;;;;;;;10.49;100.00;101546.75;5112300;28;20032;-42
2022/08/21 03:26:54;;;;;;;14.20;11.15;;;;;;;10.42;100.00;101542.19;5113089;28;20031;-42
2022/08/21 03:29:19;;;;;;;15.25;11.52;;;;;;;10.37;100.00;101536.81;5112429;28;20103;-43
2022/08/21 03:31:44;;;;;;;18.95;11.73;;;;;;;10.42;100.00;101542.19;5112387;28;20028;-42
2022/08/21 03:34:10;;;;;;;15.60;12.45;;;;;;;10.45;100.00;101542.28;5112620;28;20047;-42
2022/08/21 03:36:35;;;;;;;15.85;13.07;;;;;;;10.45;100.00;101539.72;5112256;28;20052;-46
2022/08/21 03:39:01;;;;;;;15.45;13.13;;;;;;;10.43;100.00;101535.31;5112369;28;20497;-42
2022/08/21 03:41:26;;;;;;;21.48;14.00;;;;;;;10.50;100.00;101533.06;5112661;28;20084;-42
2022/08/21 03:43:51;;;;;;;17.42;14.57;;;;;;;10.54;100.00;101529.78;5114573;28;20032;-42
2022/08/21 03:46:16;;;;;;;18.77;15.88;;;;;;;10.63;100.00;101531.84;5116084;28;20386;-41
2022/08/21 03:48:42;;;;;;;16.17;13.43;;;;;;;10.55;100.00;101535.84;5116425;28;20020;-41
2022/08/21 03:51:07;;;;;;;17.13;12.80;;;;;;;10.50;100.00;101535.63;5115532;28;20094;-43
2022/08/21 03:53:33;;;;;;;16.02;12.65;;;;;;;10.47;100.00;101537.19;5116233;28;20042;-43
2022/08/21 03:55:59;;;;;;;20.23;16.75;;;;;;;10.59;100.00;101532.56;5116329;28;20028;-43
2022/08/21 03:58:26;;;;;;;28.92;22.45;;;;;;;10.76;100.00;101535.81;5115331;28;20031;-43
2022/08/21 04:00:55;;;;;;;19.17;16.77;;;;;;;10.62;100.00;101534.38;5116281;28;20019;-42
2022/08/21 04:03:20;;;;;;;17.50;14.85;;;;;;;10.60;100.00;101530.84;5115578;28;20058;-42
2022/08/21 04:05:46;;;;;;;17.55;14.57;;;;;;;10.48;100.00;101532.13;5115826;28;20052;-42
2022/08/21 04:08:13;;;;;;;16.63;14.88;;;;;;;10.48;100.00;101526.97;5115995;28;20015;-42
2022/08/21 04:10:40;;;;;;;17.80;14.45;;;;;;;10.42;100.00;101529.31;5115946;28;20088;-44
2022/08/21 04:13:07;;;;;;;24.75;18.65;;;;;;;10.48;100.00;101534.72;5115527;28;20027;-42
2022/08/21 04:15:33;;;;;;;18.25;16.08;;;;;;;10.34;100.00;101535.78;5115626;28;20023;-42
2022/08/21 04:17:59;;;;;;;17.83;15.75;;;;;;;10.37;100.00;101538.53;5115599;28;20065;-41
2022/08/21 04:20:25;;;;;;;20.75;15.57;;;;;;;10.36;100.00;101542.78;5115125;27;20023;-44
2022/08/21 04:22:51;;;;;;;19.55;17.52;;;;;;;10.39;100.00;101542.03;5115833;28;20063;-44
2022/08/21 04:25:18;;;;;;;20.35;18.25;;;;;;;10.40;100.00;101543.81;5115292;28;20095;-41
2022/08/21 04:27:45;;;;;;;28.95;22.48;;;;;;;10.50;100.00;101540.78;5115016;28;20443;-44
2022/08/21 04:30:12;;;;;;;32.97;27.33;;;;;;;10.76;100.00;101548.69;5115411;28;20027;-44
2022/08/21 04:32:38;;;;;;;29.65;26.02;;;;;;;10.85;100.00;101545.63;5115326;28;20039;-47
2022/08/21 04:35:07;;;;;;;33.20;26.02;;;;;;;10.94;100.00;101552.84;5114637;28;20461;-45
2022/08/21 04:37:32;;;;;;;32.38;25.02;;;;;;;11.04;100.00;101554.97;5115366;27;20046;-42
2022/08/21 04:39:58;;;;;;;30.60;24.33;;;;;;;11.12;100.00;101558.72;5115311;28;20034;-42
2022/08/21 04:42:24;;;;;;;29.45;23.98;;;;;;;11.15;100.00;101563.97;5114701;28;20416;-44
2022/08/21 04:44:50;;;;;;;35.00;24.35;;;;;;;11.22;100.00;101559.97;5115336;27;20019;-43
2022/08/21 04:47:16;;;;;;;28.50;22.00;;;;;;;11.26;100.00;101556.66;5114147;28;20031;-43
2022/08/21 04:49:42;;;;;;;27.73;21.35;;;;;;;11.29;100.00;101555.91;5115442;28;20066;-45
2022/08/21 04:52:07;;;;;;;29.45;22.25;;;;;;;11.32;100.00;101556.00;5115251;28;20192;-42
2022/08/21 04:54:33;;;;;;;25.63;21.40;;;;;;;11.33;100.00;101557.78;5114267;28;20147;-41
2022/08/21 04:57:06;;;;;;;28.98;21.27;;;;;;;11.39;100.00;101559.69;5115043;28;20535;-42
2022/08/21 04:59:42;;;;;;;25.95;19.00;;;;;;;11.41;100.00;101561.50;5114446;28;20490;-43
2022/08/21 05:02:09;;;;;;;27.13;19.35;;;;;;;11.42;100.00;101560.69;5114468;28;20163;-42
2022/08/21 05:04:41;;;;;;;25.90;21.83;;;;;;;11.45;100.00;101566.00;5115232;27;20027;-42
2022/08/21 05:07:12;;;;;;;29.55;20.50;;;;;;;11.48;100.00;101566.09;5114845;28;20019;-42
2022/08/21 05:09:38;;;;;;;33.75;20.98;;;;;;;11.51;100.00;101566.19;5114298;28;20023;-42
2022/08/21 05:12:04;;;;;;;27.90;20.42;;;;;;;11.55;100.00;101567.19;5114736;28;20023;-43
2022/08/21 05:14:29;;;;;;;29.33;20.63;;;;;;;11.59;100.00;101563.91;5114372;28;20075;-41
2022/08/21 05:16:54;;;;;;;30.85;18.50;;;;;;;11.64;100.00;101571.81;5114200;28;20432;-42
2022/08/21 05:19:19;;;;;;;23.30;18.33;;;;;;;11.67;100.00;101571.94;5114405;28;20039;-42
2022/08/21 05:21:47;;;;;;;25.25;18.42;;;;;;;11.73;100.00;101579.03;5114420;28;20537;-42
2022/08/21 05:24:12;;;;;;;25.58;17.98;;;;;;;11.77;100.00;101571.44;5114266;28;20032;-41
2022/08/21 05:26:38;;;;;;;24.35;17.02;;;;;;;11.82;100.00;101572.47;5114496;28;20379;-43
2022/08/21 05:29:04;;;;;;;25.25;16.75;;;;;;;11.87;100.00;101577.84;5114480;28;20094;-41
2022/08/21 05:31:29;;;;;;;27.52;17.20;;;;;;;11.92;100.00;101575.44;5113723;28;20098;-42
2022/08/21 05:33:55;;;;;;;24.00;16.25;;;;;;;11.96;100.00;101578.19;5114503;28;20488;-44
2022/08/21 05:36:20;;;;;;;23.33;16.23;;;;;;;12.02;100.00;101573.25;5113479;28;20075;-44
2022/08/21 05:38:46;;;;;;;27.25;15.88;;;;;;;12.07;100.00;101586.34;5113812;28;20033;-42
2022/08/21 05:41:12;;;;;;;21.30;15.40;;;;;;;12.15;100.00;101577.13;5113985;28;20020;-43
2022/08/21 05:43:37;;;;;;;24.80;15.75;;;;;;;12.17;100.00;101583.25;5113669;28;20378;-42
2022/08/21 05:46:04;;;;;;;22.63;15.50;;;;;;;12.19;100.00;101580.72;5114332;28;20019;-42
2022/08/21 05:48:30;;;;;;;23.67;15.93;;;;;;;12.26;100.00;101581.78;5113804;28;20054;-42
2022/08/21 05:50:56;;;;;;;23.73;15.15;;;;;;;12.37;100.00;101583.06;5113501;28;20023;-42
2022/08/21 05:53:23;;;;;;;23.73;14.68;;;;;;;12.40;100.00;101585.72;5113725;28;20032;-42
2022/08/21 05:55:49;;;;;;;19.38;13.40;;;;;;;12.50;100.00;101587.78;5113658;28;20036;-41
2022/08/21 05:58:17;;;;;;;20.15;13.05;;;;;;;12.55;100.00;101590.56;5113025;28;20419;-43
2022/08/21 06:00:47;;;;;;;20.83;13.18;;;;;;;12.60;100.00;101590.69;5114073;28;20030;-41
2022/08/21 06:03:16;;;;;;;25.52;13.00;;;;;;;12.67;100.00;101592.66;5113422;27;20093;-43
2022/08/21 06:05:42;;;;;;;21.63;12.00;;;;;;;12.73;100.00;101579.94;5112914;28;20019;-42
2022/08/21 06:08:07;;;;;;;20.15;11.68;;;;;;;12.79;100.00;101580.09;5113778;28;20128;-42
2022/08/21 06:10:33;;;;;;;19.00;12.93;;;;;;;12.88;100.00;101583.84;5113136;28;20531;-41
2022/08/21 06:12:58;;;;;;;21.05;11.70;;;;;;;12.90;100.00;101582.16;5113276;28;20023;-47
2022/08/21 06:15:23;;;;;;;19.15;11.57;;;;;;;12.97;100.00;101581.53;5113181;28;20466;-43
2022/08/21 06:17:49;;;;;;;17.83;10.98;;;;;;;13.06;100.00;101579.22;5113466;28;20031;-41
2022/08/21 06:20:14;;;;;;;21.63;11.43;;;;;;;13.12;100.00;101588.91;5113110;28;20026;-41
2022/08/21 06:22:39;;;;;;;20.88;11.27;;;;;;;13.15;100.00;101589.00;5113427;28;20031;-42
2022/08/21 06:25:05;;;;;;;21.45;12.15;;;;;;;13.20;100.00;101591.75;5113139;28;20050;-43
2022/08/21 06:27:30;;;;;;;16.75;9.70;;;;;;;13.31;100.00;101590.31;5112559;28;20033;-44
2022/08/21 06:29:57;;;;;;;21.23;10.82;;;;;;;13.37;100.00;101585.38;5113526;28;20049;-42
2022/08/21 06:32:22;;;;;;;19.90;11.00;;;;;;;13.45;100.00;101589.09;5113053;28;20028;-44
2022/08/21 06:34:47;;;;;;;23.95;11.55;;;;;;;13.52;100.00;101589.25;5112643;28;20057;-42
2022/08/21 06:37:13;;;;;;;20.52;11.20;;;;;;;13.66;100.00;101587.97;5113052;28;20027;-48
2022/08/21 06:39:39;;;;;;;22.00;10.95;;;;;;;13.74;100.00;101591.63;5113043;28;20023;-42
2022/08/21 06:42:05;;;;;;;15.50;10.18;;;;;;;13.77;100.00;101585.66;5113033;28;20057;-44
2022/08/21 06:44:30;;;;;;;20.50;11.13;;;;;;;13.86;100.00;101590.22;5113240;28;20116;-42
2022/08/21 06:46:55;;;;;;;26.35;11.15;;;;;;;13.98;100.00;101591.44;5112551;28;20032;-43
2022/08/21 06:49:20;;;;;;;19.33;11.13;;;;;;;14.11;100.00;101589.19;5113089;28;20035;-43
2022/08/21 06:51:46;;;;;;;22.40;10.60;;;;;;;14.21;100.00;101592.91;5112954;28;20032;-45
2022/08/21 06:54:11;;;;;;;19.25;11.13;;;;;;;14.37;100.00;101588.97;5112357;28;20385;-43
2022/08/21 06:56:38;;;;;;;21.20;10.68;;;;;;;14.39;100.00;101587.31;5113297;28;20033;-42
2022/08/21 06:59:04;;;;;;;20.73;9.85;;;;;;;14.46;100.00;101584.03;5112873;28;20381;-43
2022/08/21 07:01:30;;;;;;;20.77;10.77;;;;;;;14.61;100.00;101586.16;5112299;28;20478;-44
2022/08/21 07:03:55;;;;;;;21.20;10.40;;;;;;;14.80;100.00;101592.69;5113195;28;20350;-44
2022/08/21 07:06:20;;;;;;;19.88;10.45;;;;;;;14.95;100.00;101585.28;5112646;28;20035;-41
2022/08/21 07:08:46;;;;;;;23.13;10.68;;;;;;;15.01;100.00;101586.25;5112488;28;20028;-45
2022/08/21 07:11:16;;;;;;;25.98;10.48;;;;;;;15.07;100.00;101584.69;5113038;28;20028;-42
2022/08/21 07:13:42;;;;;;;22.05;10.52;;;;;;;15.18;100.00;101586.66;5113031;28;20032;-43
2022/08/21 07:16:08;;;;;;;18.73;9.75;;;;;;;15.34;100.00;101580.94;5112452;28;20478;-43
2022/08/21 07:18:33;;;;;;;21.42;10.88;;;;;;;15.54;100.00;101585.69;5114651;28;20351;-42
2022/08/21 07:21:01;;;;;;;18.40;9.82;;;;;;;15.70;98.78;101582.56;5116671;28;20023;-42
2022/08/21 07:23:33;;;;;;;20.40;9.60;;;;;;;15.90;98.16;101579.50;5115972;28;20027;-44
2022/08/21 07:26:00;;;;;;;21.70;10.23;;;;;;;16.06;98.57;101585.88;5116978;28;20402;-44
2022/08/21 07:28:26;;;;;;;22.20;10.00;;;;;;;16.20;97.73;101567.94;5116327;28;20492;-44
2022/08/21 07:30:54;;;;;;;22.50;10.38;;;;;;;16.25;97.08;101576.69;5116259;28;20027;-42
2022/08/21 07:33:20;;;;;;;21.25;10.20;;;;;;;16.24;95.73;101581.03;5116489;28;20097;-44
2022/08/21 07:35:45;;;;;;;19.33;10.15;;;;;;;16.26;95.41;101583.66;5116413;28;20482;-44
2022/08/21 07:38:10;;;;;;;23.23;10.10;;;;;;;16.16;96.62;101581.72;5115895;28;20031;-43
2022/08/21 07:40:36;;;;;;;21.52;9.35;;;;;;;16.13;95.69;101583.41;5116348;28;20378;-43
2022/08/21 07:43:02;;;;;;;23.25;10.10;;;;;;;16.17;96.69;101588.69;5115808;28;20035;-45
2022/08/21 07:45:27;;;;;;;19.88;9.35;;;;;;;16.27;96.77;101585.41;5116316;28;20024;-42
2022/08/21 07:47:53;;;;;;;18.70;9.27;;;;;;;16.46;95.80;101582.28;5116332;28;20023;-43
2022/08/21 07:50:19;;;;;;;19.70;8.90;;;;;;;16.59;94.46;101587.66;5115583;28;20065;-42
2022/08/21 07:52:44;;;;;;;18.65;8.82;;;;;;;16.79;93.33;101581.06;5116594;27;20016;-42
2022/08/21 07:55:12;;;;;;;17.75;7.72;;;;;;;16.87;92.42;101580.31;5115736;28;20050;-42
2022/08/21 07:57:38;;;;;;;18.60;8.10;;;;;;;16.98;91.89;101577.88;5115861;28;20031;-42
2022/08/21 08:00:06;;;;;;;18.20;7.57;;;;;;;17.06;90.36;101584.09;5116302;28;20027;-43
2022/08/21 08:02:31;;;;;;;21.92;6.90;;;;;;;17.15;91.38;101583.38;5115628;28;20031;-45
2022/08/21 08:05:01;;;;;;;16.63;7.03;;;;;;;17.15;90.91;101586.84;5115457;28;20027;-42
2022/08/21 08:07:26;;;;;;;19.05;6.68;;;;;;;17.27;88.73;101573.09;5116033;27;20030;-44
2022/08/21 08:09:52;;;;;;;18.98;7.00;;;;;;;17.41;88.57;101576.75;5115953;28;20429;-44
2022/08/21 08:12:18;;;;;;;15.45;5.97;;;;;;;17.56;89.92;101581.31;5115380;28;20035;-43
2022/08/21 08:14:43;;;;;;;21.35;6.32;;;;;;;17.65;88.69;101580.53;5116089;28;20027;-45
2022/08/21 08:17:08;;;;;;;19.10;6.57;;;;;;;17.71;86.61;101574.50;5115421;28;20032;-43
2022/08/21 08:19:34;;;;;;;18.42;6.32;;;;;;;17.75;85.70;101582.41;5115167;28;20027;-43
2022/08/21 08:21:59;;;;;;;16.83;5.50;;;;;;;17.91;85.61;101582.56;5115980;28;20027;-44
2022/08/21 08:24:24;;;;;;;17.20;5.95;;;;;;;17.96;84.29;101580.03;5115449;28;20016;-43
2022/08/21 08:26:49;;;;;;;16.63;5.75;;;;;;;18.07;84.22;101576.66;5115272;28;20407;-44
2022/08/21 08:29:15;;;;;;;18.00;5.55;;;;;;;18.29;84.40;101579.50;5115117;28;20035;-42
2022/08/21 08:31:40;;;;;;;18.42;5.90;;;;;;;18.49;84.07;101581.41;5115363;28;20054;-43
2022/08/21 08:34:05;;;;;;;15.95;5.13;;;;;;;18.56;82.71;101580.59;5114921;28;20024;-48
2022/08/21 08:36:36;;;;;;;12.43;4.68;;;;;;;18.74;82.22;101578.13;5115009;28;20055;-43
2022/08/21 08:39:03;;;;;;;18.55;5.45;;;;;;;18.80;80.63;101576.44;5115255;28;20470;-42
2022/08/21 08:41:30;;;;;;;18.40;5.65;;;;;;;18.87;80.14;101578.22;5114595;28;20124;-43
2022/08/21 08:44:03;;;;;;;16.27;5.57;;;;;;;19.06;80.91;101574.91;5115165;28;20039;-46
2022/08/21 08:46:50;;;;;;;16.33;5.07;;;;;;;19.17;81.06;101571.47;5114583;28;20066;-43
2022/08/21 08:49:30;;;;;;;15.43;4.82;;;;;;;19.41;80.14;101574.22;5114987;28;20509;-45
2022/08/21 08:52:11;;;;;;;14.40;5.03;;;;;;;19.43;78.40;101566.38;5115245;28;20051;-43
2022/08/21 08:54:49;;;;;;;17.45;4.53;;;;;;;19.65;77.91;101569.97;5114644;28;20023;-44
2022/08/21 08:57:18;;;;;;;20.30;4.95;;;;;;;19.74;76.40;101566.47;5114776;28;20108;-46
2022/08/21 08:59:48;;;;;;;15.25;5.18;;;;;;;19.83;75.67;101563.06;5114976;28;20084;-42
2022/08/21 09:02:15;;;;;;;14.15;4.78;;;;;;;20.05;76.12;101554.41;5114301;28;20020;-42
2022/08/21 09:04:42;;;;;;;18.65;5.18;;;;;;;19.92;72.89;101546.53;5115013;28;20023;-44
2022/08/21 09:07:35;;;;;;;13.57;4.45;;;;;;;20.12;73.42;101549.19;5114755;28;20024;-43
2022/08/21 09:10:21;;;;;;;18.45;4.55;;;;;;;20.20;72.79;101547.44;5115095;28;20024;-43
2022/08/21 09:13:03;;;;;;;15.67;4.20;;;;;;;20.38;72.13;101546.56;5114652;28;20597;-42
2022/08/21 09:15:53;;;;;;;10.90;3.88;;;;;;;20.49;71.39;101539.59;5113960;28;20035;-44
2022/08/21 09:18:43;;;;;;;12.18;3.97;;;;;;;20.45;69.65;101547.44;5114397;28;20466;-43
2022/08/21 09:21:14;;;;;;;11.40;3.60;;;;;;;20.55;69.16;101544.81;5114231;28;20593;-44
2022/08/21 09:23:59;;;;;;;11.25;3.65;;;;;;;20.75;69.09;101535.22;5114040;28;20044;-44
2022/08/21 09:26:44;;;;;;;13.75;3.75;;;;;;;20.73;67.46;101550.94;5113910;28;20385;-48
2022/08/21 09:29:11;;;;;;;11.32;3.65;;;;;;;20.91;67.42;101536.94;5113804;28;20347;-45
2022/08/21 09:31:39;;;;;;;10.55;3.72;;;;;;;20.96;67.37;101537.78;5114652;28;20041;-42
2022/08/21 09:34:14;;;;;;;14.52;3.75;;;;;;;21.17;66.73;101535.97;5114211;28;20131;-44
2022/08/21 09:36:50;;;;;;;10.27;2.75;;;;;;;21.44;65.97;101542.84;5113482;28;20043;-43
2022/08/21 09:39:39;;;;;;;11.40;3.05;;;;;;;21.61;65.52;101545.44;5114244;28;20031;-42
2022/08/21 09:42:08;;;;;;;11.52;2.60;;;;;;;21.87;63.85;101547.91;5113249;28;20359;-44
2022/08/21 09:44:39;;;;;;;11.00;2.88;;;;;;;21.96;60.58;101553.97;5113503;28;20363;-44
2022/08/21 09:47:05;;;;;;;12.18;2.83;;;;;;;22.07;61.23;101553.94;5113898;28;20028;-43
2022/08/21 09:49:37;;;;;;;9.55;3.13;;;;;;;22.09;60.69;101558.28;5114047;28;20038;-43
2022/08/21 09:52:11;;;;;;;11.82;2.95;;;;;;;22.11;59.58;101551.25;5114347;28;20110;-45
2022/08/21 09:54:39;;;;;;;11.70;2.92;;;;;;;22.16;58.81;101545.97;5113798;28;20476;-42
2022/08/21 10:00:29;;;;;;;13.13;2.90;;;;;;;22.54;58.25;101550.06;5114302;28;20366;-46
2022/08/21 10:03:16;;;;;;;13.23;3.33;;;;;;;22.81;56.86;101542.78;5113635;28;20036;-43
2022/08/21 10:05:52;;;;;;;10.73;3.03;;;;;;;23.50;55.48;101539.38;5112815;28;20119;-44
2022/08/21 10:08:19;;;;;;;9.27;2.40;;;;;;;24.07;55.56;101539.50;5113532;28;20016;-43
2022/08/21 10:10:45;;;;;;;9.50;2.83;;;;;;;24.93;50.64;101532.75;5113272;28;20103;-43
2022/08/21 10:13:13;;;;;;;9.13;2.47;;;;;;;25.13;49.44;101539.38;5113672;28;20489;-45
2022/08/21 10:16:08;;;;;;;8.63;2.33;;;;;;;25.29;53.26;101546.09;5113422;28;20040;-45
2022/08/21 10:18:41;;;;;;;15.85;2.85;;;;;;;25.23;49.74;101542.69;5112992;28;20512;-47
2022/08/21 10:21:41;;;;;;;9.82;2.42;;;;;;;25.82;51.15;101550.22;5113643;28;20466;-44
2022/08/21 10:24:19;;;;;;;8.15;2.47;;;;;;;24.99;48.67;101547.56;5109985;28;20039;-47
2022/08/21 10:27:15;;;;;;;9.38;2.40;;;;;;;24.38;48.86;101557.44;5112861;28;20389;-44
2022/08/21 10:30:06;;;;;;;8.80;2.30;;;;;;;24.60;49.33;101547.41;5112967;28;20467;-44
2022/08/21 10:32:47;;;;;;;11.23;2.55;;;;;;;25.21;48.82;101545.34;5112723;28;20024;-45
2022/08/21 10:35:31;;;;;;;9.82;2.72;;;;;;;25.89;47.14;101545.69;5113011;28;20039;-46
2022/08/21 10:38:24;;;;;;;9.43;2.50;;;;;;;26.54;47.09;101547.63;5113162;28;20057;-43
2022/08/21 10:41:02;;;;;;;8.98;2.50;;;;;;;27.12;44.24;101539.03;5112724;28;20024;-46
2022/08/21 10:43:59;;;;;;;8.40;2.60;;;;;;;26.69;46.28;101542.81;5112648;28;20386;-48
2022/08/21 10:46:42;;;;;;;8.77;2.60;;;;;;;26.09;45.93;101537.31;5112523;28;20019;-45
2022/08/21 10:49:22;;;;;;;9.38;3.03;;;;;;;25.83;46.11;101535.28;5113377;28;20030;-43
2022/08/21 10:52:01;;;;;;;10.82;2.80;;;;;;;25.57;45.56;101527.03;5113739;28;20112;-44
2022/08/21 10:54:52;;;;;;;6.85;2.38;;;;;;;25.89;47.46;101536.00;5116930;28;20023;-46
2022/08/21 10:57:46;;;;;;;7.72;3.00;;;;;;;26.11;47.15;101531.09;5116946;28;20034;-47
2022/08/21 11:00:19;;;;;;;10.32;3.00;;;;;;;25.94;45.09;101528.81;5114501;28;20402;-44
2022/08/21 11:03:01;;;;;;;8.38;2.88;;;;;;;25.07;45.90;101529.81;5117542;28;20099;-45
2022/08/21 11:05:34;;;;;;;7.63;2.67;;;;;;;24.74;46.67;101534.84;5116961;28;20027;-45
2022/08/21 11:08:06;;;;;;;10.43;2.33;;;;;;;24.26;46.53;101534.78;5116702;28;20036;-47
2022/08/21 11:10:46;;;;;;;10.35;2.75;;;;;;;24.17;48.05;101531.41;5116789;28;20035;-44
2022/08/21 11:13:19;;;;;;;7.95;2.15;;;;;;;24.59;47.01;101535.09;5116900;28;20031;-47
2022/08/21 11:16:13;;;;;;;9.88;2.13;;;;;;;24.82;47.69;101526.81;5116601;28;20144;-45
2022/08/21 11:18:50;;;;;;;6.07;2.38;;;;;;;24.96;48.58;101526.53;5106145;28;20478;-45
2022/08/21 11:21:32;;;;;;;9.38;2.60;;;;;;;25.35;46.36;101529.28;5116385;28;20027;-44